sensor_id;sensor_type;location;lat;lon;timestamp;temperature;humidity
21563;DHT22;10942;47.894;11.424;2022-08-01T17:17:23;23.80;99.90
21563;DHT22;10942;47.894;11.424;2022-08-01T17:19:49;23.90;99.90
21563;DHT22;10942;47.894;11.424;2022-08-01T17:22:15;23.80;99.90
21563;DHT22;10942;47.894;11.424;2022-08-01T17:24:41;23.70;99.90
21563;DHT22;10942;47.894;11.424;2022-08-01T17:27:07;23.70;99.90
21563;DHT22;10942;47.894;11.424;2022-08-01T17:29:33;23.90;99.90
21563;DHT22;10942;47.894;11.424;2022-08-01T17:31:59;23.90;99.80
21563;DHT22;10942;47.894;11.424;2022-08-01T17:34:25;23.90;99.90
21563;DHT22;10942;47.894;11.424;2022-08-01T17:36:51;24.00;98.60
21563;DHT22;10942;47.894;11.424;2022-08-01T17:39:16;24.00;98.30
21563;DHT22;10942;47.894;11.424;2022-08-01T17:41:42;24.00;98.00
21563;DHT22;10942;47.894;11.424;2022-08-01T17:44:08;24.00;98.30
21563;DHT22;10942;47.894;11.424;2022-08-01T17:46:34;24.00;97.90
21563;DHT22;10942;47.894;11.424;2022-08-01T17:49:00;24.10;97.70
21563;DHT22;10942;47.894;11.424;2022-08-01T17:51:29;24.00;97.60
21563;DHT22;10942;47.894;11.424;2022-08-01T17:53:56;23.90;99.90
21563;DHT22;10942;47.894;11.424;2022-08-01T17:56:22;23.90;99.10
21563;DHT22;10942;47.894;11.424;2022-08-01T17:58:48;23.90;99.30
21563;DHT22;10942;47.894;11.424;2022-08-01T18:01:15;23.90;99.40
21563;DHT22;10942;47.894;11.424;2022-08-01T18:03:41;24.00;99.90
21563;DHT22;10942;47.894;11.424;2022-08-01T18:06:08;24.00;99.80
21563;DHT22;10942;47.894;11.424;2022-08-01T18:08:34;24.10;99.90
21563;DHT22;10942;47.894;11.424;2022-08-01T18:11:00;24.10;99.90
21563;DHT22;10942;47.894;11.424;2022-08-01T18:13:26;24.10;99.90
21563;DHT22;10942;47.894;11.424;2022-08-01T18:15:51;24.00;99.90
21563;DHT22;10942;47.894;11.424;2022-08-01T18:18:17;24.10;99.90
21563;DHT22;10942;47.894;11.424;2022-08-01T18:20:46;24.00;99.90
21563;DHT22;10942;47.894;11.424;2022-08-01T18:23:12;24.00;99.90
21563;DHT22;10942;47.894;11.424;2022-08-01T18:25:38;23.90;99.90
21563;DHT22;10942;47.894;11.424;2022-08-01T18:28:05;23.90;99.90
21563;DHT22;10942;47.894;11.424;2022-08-01T18:30:31;23.90;99.90
21563;DHT22;10942;47.894;11.424;2022-08-01T18:32:57;23.80;99.90
21563;DHT22;10942;47.894;11.424;2022-08-01T18:35:24;23.80;99.90
21563;DHT22;10942;47.894;11.424;2022-08-01T18:37:51;23.70;99.90
21563;DHT22;10942;47.894;11.424;2022-08-01T18:40:18;23.70;99.90
21563;DHT22;10942;47.894;11.424;2022-08-01T18:42:43;23.70;99.90
21563;DHT22;10942;47.894;11.424;2022-08-01T18:45:10;23.80;99.90
21563;DHT22;10942;47.894;11.424;2022-08-01T18:47:35;23.70;99.90
21563;DHT22;10942;47.894;11.424;2022-08-01T18:50:01;23.70;99.90
21563;DHT22;10942;47.894;11.424;2022-08-01T18:52:27;23.60;99.90
21563;DHT22;10942;47.894;11.424;2022-08-01T18:54:53;23.60;99.90
21563;DHT22;10942;47.894;11.424;2022-08-01T18:57:19;23.50;99.90
21563;DHT22;10942;47.894;11.424;2022-08-01T18:59:45;23.50;99.90
21563;DHT22;10942;47.894;11.424;2022-08-01T19:02:10;23.50;99.90
21563;DHT22;10942;47.894;11.424;2022-08-01T19:04:36;23.50;99.90
21563;DHT22;10942;47.894;11.424;2022-08-01T19:07:02;23.50;99.90
21563;DHT22;10942;47.894;11.424;2022-08-01T19:09:28;23.40;99.90
21563;DHT22;10942;47.894;11.424;2022-08-01T19:11:54;23.40;99.90
21563;DHT22;10942;47.894;11.424;2022-08-01T19:14:20;23.40;99.90
21563;DHT22;10942;47.894;11.424;2022-08-01T19:16:46;23.30;99.90
21563;DHT22;10942;47.894;11.424;2022-08-01T19:19:11;23.20;99.90
21563;DHT22;10942;47.894;11.424;2022-08-01T19:21:38;23.20;99.90
21563;DHT22;10942;47.894;11.424;2022-08-01T19:24:05;23.20;99.90
21563;DHT22;10942;47.894;11.424;2022-08-01T19:26:48;23.10;99.90
21563;DHT22;10942;47.894;11.424;2022-08-01T19:29:16;23.10;99.90
21563;DHT22;10942;47.894;11.424;2022-08-01T19:31:43;23.10;99.90
21563;DHT22;10942;47.894;11.424;2022-08-01T19:34:11;23.10;99.90
21563;DHT22;10942;47.894;11.424;2022-08-01T19:36:38;23.10;99.90
21563;DHT22;10942;47.894;11.424;2022-08-01T19:39:05;23.20;99.90
21563;DHT22;10942;47.894;11.424;2022-08-01T19:41:31;23.20;99.90
21563;DHT22;10942;47.894;11.424;2022-08-01T19:43:58;23.10;99.90
21563;DHT22;10942;47.894;11.424;2022-08-01T19:46:29;23.10;99.90
21563;DHT22;10942;47.894;11.424;2022-08-01T19:48:55;23.10;99.90
21563;DHT22;10942;47.894;11.424;2022-08-01T19:51:22;23.10;99.90
21563;DHT22;10942;47.894;11.424;2022-08-01T19:53:49;23.00;99.90
21563;DHT22;10942;47.894;11.424;2022-08-01T19:56:19;22.90;99.90
21563;DHT22;10942;47.894;11.424;2022-08-01T19:58:49;22.90;99.90
21563;DHT22;10942;47.894;11.424;2022-08-01T20:01:17;22.90;99.90
21563;DHT22;10942;47.894;11.424;2022-08-01T20:03:46;22.90;99.90
21563;DHT22;10942;47.894;11.424;2022-08-01T20:06:13;22.80;99.90
21563;DHT22;10942;47.894;11.424;2022-08-01T20:08:39;22.80;99.90
21563;DHT22;10942;47.894;11.424;2022-08-01T20:11:07;22.70;99.90
21563;DHT22;10942;47.894;11.424;2022-08-01T20:13:33;22.60;99.90
21563;DHT22;10942;47.894;11.424;2022-08-01T20:15:59;22.60;99.90
21563;DHT22;10942;47.894;11.424;2022-08-01T20:18:25;22.60;99.90
21563;DHT22;10942;47.894;11.424;2022-08-01T20:20:52;22.60;99.90
21563;DHT22;10942;47.894;11.424;2022-08-01T20:23:20;22.50;99.90
21563;DHT22;10942;47.894;11.424;2022-08-01T20:25:49;22.40;99.90
21563;DHT22;10942;47.894;11.424;2022-08-01T20:28:21;22.40;99.90
21563;DHT22;10942;47.894;11.424;2022-08-01T20:30:52;22.40;99.90
21563;DHT22;10942;47.894;11.424;2022-08-01T20:33:19;22.40;99.90
21563;DHT22;10942;47.894;11.424;2022-08-01T20:35:45;22.10;99.90
21563;DHT22;10942;47.894;11.424;2022-08-01T20:38:11;22.20;99.90
